createdAt,value
2022-10-02T00:02:35.149Z,15.07
2022-10-02T00:05:35.374Z,11.82
2022-10-02T00:08:24.863Z,11.83
2022-10-02T00:11:19.763Z,9.30
2022-10-02T00:14:13.409Z,9.60
2022-10-02T00:17:01.327Z,11.45
2022-10-02T00:19:56.110Z,10.25
2022-10-02T00:22:53.218Z,16.38
2022-10-02T00:26:06.519Z,8.85
2022-10-02T00:28:56.663Z,10.18
2022-10-02T00:32:14.405Z,12.90
2022-10-02T00:35:39.243Z,10.00
2022-10-02T00:38:38.006Z,7.60
2022-10-02T00:42:04.168Z,11.85
2022-10-02T00:45:14.562Z,12.60
2022-10-02T00:48:24.589Z,10.02
2022-10-02T00:51:28.395Z,9.52
2022-10-02T00:54:53.991Z,8.15
2022-10-02T00:58:19.529Z,8.02
2022-10-02T01:01:23.822Z,7.65
2022-10-02T01:04:20.460Z,8.98
2022-10-02T01:07:12.987Z,7.30
2022-10-02T01:10:00.576Z,11.70
2022-10-02T01:12:49.665Z,5.47
2022-10-02T01:15:40.622Z,4.00
2022-10-02T01:18:29.901Z,4.07
2022-10-02T01:21:25.987Z,6.20
2022-10-02T01:24:25.987Z,5.00
2022-10-02T01:27:14.251Z,3.30
2022-10-02T01:30:11.763Z,4.38
2022-10-02T01:33:02.427Z,4.15
2022-10-02T01:35:50.521Z,6.60
2022-10-02T01:38:39.880Z,6.28
2022-10-02T01:41:27.273Z,10.43
2022-10-02T01:44:16.347Z,8.60
2022-10-02T01:47:17.647Z,10.93
2022-10-02T01:50:21.715Z,11.77
2022-10-02T01:53:32.110Z,9.35
2022-10-02T01:56:37.681Z,7.53
2022-10-02T01:59:31.584Z,10.18
2022-10-02T02:02:34.312Z,8.63
2022-10-02T02:05:32.571Z,9.70
2022-10-02T02:08:34.644Z,11.43
2022-10-02T02:11:22.946Z,15.48
2022-10-02T02:14:34.882Z,13.73
2022-10-02T02:17:35.674Z,13.52
2022-10-02T02:20:36.282Z,13.15
2022-10-02T02:23:28.782Z,14.73
2022-10-02T02:26:19.879Z,15.32
2022-10-02T02:31:58.882Z,12.60
2022-10-02T02:34:52.612Z,11.85
2022-10-02T02:37:41.405Z,12.93
2022-10-02T02:40:32.717Z,11.85
2022-10-02T02:43:27.440Z,22.75
2022-10-02T02:46:23.387Z,22.75
2022-10-02T02:49:12.902Z,11.77
2022-10-02T02:52:03.677Z,14.10
2022-10-02T02:54:58.703Z,13.98
2022-10-02T02:57:58.457Z,15.02
2022-10-02T03:00:45.735Z,10.88
2022-10-02T03:03:33.005Z,10.20
2022-10-02T03:06:38.084Z,14.55
2022-10-02T03:09:27.617Z,13.25
2022-10-02T03:12:28.518Z,13.38
2022-10-02T03:15:28.755Z,14.25
2022-10-02T03:19:03.652Z,13.00
2022-10-02T03:21:56.868Z,12.15
2022-10-02T03:24:56.311Z,12.93
2022-10-02T03:27:56.102Z,15.43
2022-10-02T03:30:44.866Z,11.60
2022-10-02T03:33:34.221Z,12.98
2022-10-02T03:36:22.329Z,13.65
2022-10-02T03:39:26.245Z,12.55
2022-10-02T03:42:15.215Z,15.57
2022-10-02T03:45:02.562Z,10.35
2022-10-02T03:47:50.342Z,14.95
2022-10-02T03:50:37.560Z,13.48
2022-10-02T03:53:30.473Z,14.57
2022-10-02T03:56:33.619Z,16.80
2022-10-02T03:59:44.850Z,17.98
2022-10-02T04:02:47.232Z,11.80
2022-10-02T04:05:43.061Z,16.80
2022-10-02T04:08:40.029Z,10.50
2022-10-02T04:11:48.438Z,16.48
2022-10-02T04:14:53.095Z,12.48
2022-10-02T04:17:44.898Z,10.23
2022-10-02T04:20:51.553Z,9.18
2022-10-02T04:24:02.739Z,14.18
2022-10-02T04:29:56.787Z,13.52
2022-10-02T04:32:44.344Z,11.90
2022-10-02T04:35:56.085Z,9.63
2022-10-02T04:38:52.427Z,14.02
2022-10-02T04:42:02.939Z,10.77
2022-10-02T04:45:26.557Z,9.23
2022-10-02T04:48:55.461Z,14.25
2022-10-02T04:52:00.594Z,10.45
2022-10-02T04:55:08.049Z,10.13
2022-10-02T04:58:01.391Z,15.38
2022-10-02T05:01:03.592Z,14.80
2022-10-02T05:04:24.829Z,15.35
2022-10-02T05:07:27.100Z,15.40
2022-10-02T05:10:42.306Z,16.30
2022-10-02T05:13:32.380Z,9.63
2022-10-02T05:16:45.800Z,14.48
2022-10-02T05:19:40.231Z,10.88
2022-10-02T05:22:50.328Z,16.58
2022-10-02T05:25:46.599Z,14.85
2022-10-02T05:28:51.409Z,12.82
2022-10-02T05:31:56.781Z,11.90
2022-10-02T05:35:11.867Z,9.30
2022-10-02T05:38:09.944Z,12.82
2022-10-02T05:41:37.191Z,9.77
2022-10-02T05:44:37.535Z,12.10
2022-10-02T05:47:28.156Z,9.23
2022-10-02T05:50:18.463Z,9.15
2022-10-02T05:53:27.841Z,16.27
2022-10-02T05:56:22.830Z,8.13
2022-10-02T05:59:19.659Z,8.95
2022-10-02T06:02:39.471Z,10.88
2022-10-02T06:06:02.193Z,7.55
2022-10-02T06:09:11.397Z,8.82
2022-10-02T06:12:14.514Z,9.93
2022-10-02T06:15:22.780Z,8.77
2022-10-02T06:18:19.507Z,9.35
2022-10-02T06:21:28.954Z,5.95
2022-10-02T06:24:39.123Z,5.95
2022-10-02T06:28:08.051Z,7.57
2022-10-02T06:31:11.404Z,6.13
2022-10-02T06:33:58.774Z,10.35
2022-10-02T06:37:04.100Z,9.77
2022-10-02T06:40:11.893Z,7.18
2022-10-02T06:43:18.099Z,9.60
2022-10-02T06:46:30.815Z,8.10
2022-10-02T06:49:30.097Z,5.55
2022-10-02T06:52:20.151Z,6.35
2022-10-02T06:55:35.653Z,4.63
2022-10-02T06:58:52.387Z,5.20
2022-10-02T07:01:56.507Z,6.55
2022-10-02T07:05:22.892Z,3.90
2022-10-02T07:08:12.056Z,4.75
2022-10-02T07:11:26.983Z,3.97
2022-10-02T07:14:48.290Z,4.15
2022-10-02T07:17:58.126Z,4.72
2022-10-02T07:21:07.918Z,7.88
2022-10-02T07:24:02.400Z,5.55
2022-10-02T07:26:57.854Z,2.88
2022-10-02T07:30:03.832Z,4.82
2022-10-02T07:33:15.804Z,7.75
2022-10-02T07:36:07.265Z,3.30
2022-10-02T07:39:16.741Z,5.22
2022-10-02T07:42:33.911Z,3.25
2022-10-02T07:45:41.990Z,3.92
2022-10-02T07:48:32.079Z,4.60
2022-10-02T07:51:48.046Z,3.30
2022-10-02T07:55:00.320Z,2.65
2022-10-02T07:58:05.083Z,3.65
2022-10-02T08:01:01.502Z,6.20
2022-10-02T08:03:55.690Z,1.67
2022-10-02T08:06:45.050Z,1.58
2022-10-02T08:09:40.703Z,0.55
2022-10-02T08:12:33.984Z,1.10
2022-10-02T08:15:22.590Z,2.50
2022-10-02T08:18:34.088Z,1.23
2022-10-02T08:21:24.869Z,0.80
2022-10-02T08:24:24.535Z,1.87
2022-10-02T08:27:33.790Z,1.60
2022-10-02T08:30:20.951Z,0.73
2022-10-02T08:33:30.934Z,1.48
2022-10-02T08:36:46.022Z,2.50
2022-10-02T08:39:39.830Z,0.60
2022-10-02T08:42:33.031Z,1.27
2022-10-02T08:45:50.026Z,2.25
2022-10-02T08:49:15.102Z,2.95
2022-10-02T08:52:24.436Z,5.53
2022-10-02T08:55:47.808Z,2.72
2022-10-02T08:58:53.727Z,9.48
2022-10-02T09:02:27.730Z,13.90
2022-10-02T09:05:56.589Z,3.85
2022-10-02T09:09:14.817Z,1.77
2022-10-02T09:12:29.790Z,3.15
2022-10-02T09:15:22.790Z,1.17
2022-10-02T09:18:15.974Z,0.82
2022-10-02T09:21:32.411Z,2.10
2022-10-02T09:24:43.211Z,1.83
2022-10-02T09:27:49.423Z,2.55
2022-10-02T09:31:08.401Z,0.98
2022-10-02T09:34:43.111Z,0.70
2022-10-02T09:37:54.743Z,1.02
2022-10-02T09:41:18.092Z,1.63
2022-10-02T09:44:20.486Z,0.40
2022-10-02T09:47:19.153Z,1.10
2022-10-02T09:50:25.308Z,0.63
2022-10-02T09:53:40.229Z,1.75
2022-10-02T09:57:05.639Z,0.82
2022-10-02T10:00:13.868Z,0.30
2022-10-02T10:03:39.977Z,0.60
2022-10-02T10:06:45.954Z,2.28
2022-10-02T10:10:07.504Z,1.42
2022-10-02T10:12:54.746Z,3.40
2022-10-02T10:15:47.864Z,2.25
2022-10-02T10:19:02.454Z,3.72
2022-10-02T10:22:04.749Z,3.80
2022-10-02T10:25:19.993Z,2.38
2022-10-02T10:28:50.979Z,1.10
2022-10-02T10:32:08.906Z,1.33
2022-10-02T10:35:39.700Z,0.57
2022-10-02T10:38:38.010Z,2.08
2022-10-02T10:41:57.463Z,1.90
2022-10-02T10:45:26.423Z,2.08
2022-10-02T10:48:34.986Z,4.07
2022-10-02T10:51:42.634Z,0.82
2022-10-02T10:54:40.719Z,1.00
2022-10-02T10:57:42.308Z,0.90
2022-10-02T11:00:46.847Z,49.28
2022-10-02T11:04:00.500Z,11.38
2022-10-02T11:07:25.964Z,6.90
2022-10-02T11:10:26.956Z,5.40
2022-10-02T11:13:27.272Z,5.72
2022-10-02T11:16:37.386Z,13.47
2022-10-02T11:19:55.839Z,8.88
2022-10-02T11:22:50.863Z,2.88
2022-10-02T11:26:23.887Z,1.52
2022-10-02T11:29:39.975Z,5.13
2022-10-02T11:32:31.642Z,2.63
2022-10-02T11:35:48.068Z,1.20
2022-10-02T11:39:00.006Z,0.98
2022-10-02T11:42:08.505Z,1.42
2022-10-02T11:45:14.567Z,3.70
2022-10-02T11:48:24.147Z,3.42
2022-10-02T11:51:20.884Z,3.88
2022-10-02T11:54:20.101Z,3.28
2022-10-02T11:57:41.460Z,1.80
2022-10-02T12:00:45.292Z,1.23
2022-10-02T12:03:36.443Z,3.50
2022-10-02T12:06:35.703Z,2.55
2022-10-02T12:09:41.684Z,4.00
2022-10-02T12:12:40.176Z,2.22
2022-10-02T12:15:35.086Z,2.65
2022-10-02T12:18:58.393Z,7.55
2022-10-02T12:22:18.587Z,5.25
2022-10-02T12:26:03.548Z,2.67
2022-10-02T12:29:09.813Z,4.07
2022-10-02T12:32:27.531Z,1.90
2022-10-02T12:35:44.653Z,2.65
2022-10-02T12:39:07.920Z,3.33
2022-10-02T12:42:29.118Z,3.55
2022-10-02T12:45:34.577Z,1.05
2022-10-02T12:48:46.393Z,3.70
2022-10-02T12:51:48.529Z,2.42
2022-10-02T12:55:13.393Z,2.53
2022-10-02T12:58:17.188Z,2.08
2022-10-02T13:01:31.675Z,2.47
2022-10-02T13:04:44.932Z,7.60
2022-10-02T13:08:02.145Z,4.70
2022-10-02T13:10:57.425Z,7.22
2022-10-02T13:14:20.168Z,3.05
2022-10-02T13:17:25.549Z,2.47
2022-10-02T13:20:26.329Z,2.85
2022-10-02T13:23:50.451Z,2.05
2022-10-02T13:26:52.002Z,5.03
2022-10-02T13:30:09.980Z,1.65
2022-10-02T13:33:17.337Z,3.45
2022-10-02T13:36:23.731Z,2.92
2022-10-02T13:39:27.666Z,2.88
2022-10-02T13:42:20.500Z,2.13
2022-10-02T13:45:40.730Z,2.45
2022-10-02T13:48:55.682Z,2.00
2022-10-02T13:51:46.089Z,1.88
2022-10-02T13:54:42.145Z,2.80
2022-10-02T13:57:50.490Z,2.67
2022-10-02T14:00:37.515Z,1.73
2022-10-02T14:03:49.040Z,3.05
2022-10-02T14:06:53.076Z,3.63
2022-10-02T14:09:55.118Z,3.40
2022-10-02T14:12:52.292Z,3.10
2022-10-02T14:15:59.629Z,4.28
2022-10-02T14:19:14.177Z,12.35
2022-10-02T14:22:20.085Z,7.80
2022-10-02T14:25:37.139Z,9.57
2022-10-02T14:28:34.940Z,6.47
2022-10-02T14:31:40.252Z,8.32
2022-10-02T14:34:36.878Z,9.82
2022-10-02T14:37:45.712Z,5.65
2022-10-02T14:40:52.053Z,11.15
2022-10-02T14:43:56.216Z,7.57
2022-10-02T14:46:56.365Z,3.35
2022-10-02T14:49:56.232Z,2.08
2022-10-02T14:52:56.271Z,4.72
2022-10-02T14:55:49.373Z,2.55
2022-10-02T14:58:50.347Z,5.85
2022-10-02T15:01:58.729Z,3.05
2022-10-02T15:05:27.590Z,3.45
2022-10-02T15:08:26.505Z,2.65
2022-10-02T15:11:35.948Z,4.22
2022-10-02T15:15:01.725Z,1.00
2022-10-02T15:18:10.506Z,2.35
2022-10-02T15:21:26.765Z,2.53
2022-10-02T15:24:33.056Z,1.55
2022-10-02T15:27:29.411Z,2.10
2022-10-02T15:30:20.831Z,2.75
2022-10-02T15:33:27.969Z,3.53
2022-10-02T15:36:36.908Z,5.70
2022-10-02T15:39:37.391Z,5.00
2022-10-02T15:42:33.535Z,2.95
2022-10-02T15:45:39.957Z,3.03
2022-10-02T15:48:42.602Z,4.70
2022-10-02T15:52:18.961Z,2.38
2022-10-02T15:55:30.418Z,6.30
2022-10-02T15:58:36.623Z,6.15
2022-10-02T16:01:43.476Z,3.10
2022-10-02T16:04:54.959Z,4.22
2022-10-02T16:08:07.439Z,2.85
2022-10-02T16:11:13.063Z,4.03
2022-10-02T16:14:23.419Z,5.20
2022-10-02T16:17:34.791Z,3.27
2022-10-02T16:23:50.164Z,3.78
2022-10-02T16:27:14.878Z,3.60
2022-10-02T16:30:13.273Z,5.47
2022-10-02T16:33:18.682Z,8.50
2022-10-02T16:36:29.953Z,6.35
2022-10-02T16:42:40.571Z,7.68
2022-10-02T16:45:57.109Z,4.75
2022-10-02T16:49:00.595Z,6.10
2022-10-02T16:51:53.922Z,7.75
2022-10-02T16:54:49.009Z,3.90
2022-10-02T16:57:39.178Z,4.40
2022-10-02T17:00:37.211Z,9.23
2022-10-02T17:04:05.966Z,5.63
2022-10-02T17:07:02.031Z,11.00
2022-10-02T17:09:54.880Z,6.45
2022-10-02T17:12:57.958Z,8.02
2022-10-02T17:16:08.960Z,6.18
2022-10-02T17:18:58.712Z,5.50
2022-10-02T17:22:05.921Z,7.72
2022-10-02T17:25:00.375Z,6.63
2022-10-02T17:27:56.409Z,5.72
2022-10-02T17:30:49.133Z,6.20
2022-10-02T17:33:51.233Z,5.22
2022-10-02T17:37:03.964Z,6.53
2022-10-02T17:40:10.632Z,5.43
2022-10-02T17:43:25.066Z,5.13
2022-10-02T17:46:54.038Z,3.78
2022-10-02T17:49:58.874Z,4.95
2022-10-02T17:53:25.990Z,4.97
2022-10-02T17:56:27.616Z,3.72
2022-10-02T17:59:42.852Z,5.22
2022-10-02T18:03:20.706Z,3.70
2022-10-02T18:06:43.774Z,7.75
2022-10-02T18:09:58.001Z,5.05
2022-10-02T18:12:50.259Z,4.85
2022-10-02T18:16:01.094Z,6.63
2022-10-02T18:18:57.311Z,8.60
2022-10-02T18:21:58.195Z,10.13
2022-10-02T18:25:11.894Z,11.40
2022-10-02T18:28:11.236Z,6.38
2022-10-02T18:31:33.205Z,5.07
2022-10-02T18:34:43.524Z,7.00
2022-10-02T18:37:58.944Z,6.20
2022-10-02T18:41:07.267Z,6.65
2022-10-02T18:44:08.200Z,7.32
2022-10-02T18:46:55.461Z,7.10
2022-10-02T18:49:48.774Z,8.73
2022-10-02T18:52:52.113Z,10.18
2022-10-02T18:55:45.217Z,78.57
2022-10-02T18:58:50.657Z,69.28
2022-10-02T19:01:58.198Z,100.65
2022-10-02T19:05:04.192Z,72.78
2022-10-02T19:08:03.292Z,16.00
2022-10-02T19:10:50.435Z,12.90
2022-10-02T19:13:41.099Z,10.75
2022-10-02T19:16:30.536Z,7.65
2022-10-02T19:19:21.263Z,7.30
2022-10-02T19:22:10.618Z,5.75
2022-10-02T19:25:03.916Z,7.53
2022-10-02T19:27:54.722Z,11.40
2022-10-02T19:30:47.908Z,7.72
2022-10-02T19:34:16.931Z,10.75
2022-10-02T19:37:07.339Z,13.80
2022-10-02T19:39:58.528Z,13.95
2022-10-02T19:45:35.597Z,15.90
2022-10-02T19:48:26.437Z,14.13
2022-10-02T19:51:21.212Z,11.05
2022-10-02T19:54:13.814Z,9.90
2022-10-02T19:57:11.096Z,13.57
2022-10-02T20:00:01.163Z,13.85
2022-10-02T20:02:54.341Z,10.55
2022-10-02T20:05:43.350Z,12.77
2022-10-02T20:08:37.738Z,10.05
2022-10-02T20:11:50.943Z,8.45
2022-10-02T20:14:58.309Z,16.88
2022-10-02T20:17:45.545Z,9.10
2022-10-02T20:20:35.970Z,8.70
2022-10-02T20:23:28.049Z,9.55
2022-10-02T20:26:25.987Z,8.48
2022-10-02T20:29:23.035Z,8.30
2022-10-02T20:32:43.787Z,8.75
2022-10-02T20:35:35.218Z,10.00
2022-10-02T20:38:35.133Z,12.05
2022-10-02T20:41:29.388Z,7.60
2022-10-02T20:44:16.986Z,14.90
2022-10-02T20:47:22.746Z,12.15
2022-10-02T20:50:12.982Z,16.10
2022-10-02T20:53:12.214Z,13.53
2022-10-02T20:56:27.008Z,13.98
2022-10-02T20:59:29.442Z,15.52
2022-10-02T21:02:48.522Z,12.65
2022-10-02T21:05:53.821Z,8.65
2022-10-02T21:09:18.536Z,12.40
2022-10-02T21:12:31.249Z,15.60
2022-10-02T21:15:18.415Z,10.45
2022-10-02T21:18:06.993Z,10.90
2022-10-02T21:21:24.602Z,16.05
2022-10-02T21:24:58.305Z,11.80
2022-10-02T21:28:13.459Z,15.70
2022-10-02T21:31:22.014Z,13.73
2022-10-02T21:34:39.276Z,12.35
2022-10-02T21:37:46.008Z,15.40
2022-10-02T21:41:01.502Z,15.02
2022-10-02T21:44:17.870Z,15.95
2022-10-02T21:47:40.202Z,15.93
2022-10-02T21:50:31.528Z,14.52
2022-10-02T21:53:40.575Z,18.48
2022-10-02T21:56:56.213Z,17.52
2022-10-02T21:59:59.971Z,17.70
2022-10-02T22:03:01.023Z,18.85
2022-10-02T22:05:57.430Z,17.23
2022-10-02T22:09:08.555Z,15.80
2022-10-02T22:12:31.017Z,17.70
2022-10-02T22:15:30.324Z,16.17
2022-10-02T22:18:27.007Z,20.40
2022-10-02T22:21:25.009Z,19.65
2022-10-02T22:24:19.347Z,21.75
2022-10-02T22:27:28.165Z,19.40
2022-10-02T22:30:25.907Z,20.23
2022-10-02T22:33:25.129Z,21.58
2022-10-02T22:36:32.460Z,22.75
2022-10-02T22:39:33.249Z,19.05
2022-10-02T22:42:52.041Z,17.38
2022-10-02T22:46:30.603Z,17.65
2022-10-02T22:49:51.725Z,20.52
2022-10-02T22:53:07.695Z,21.10
2022-10-02T22:55:57.114Z,23.85
2022-10-02T22:59:14.143Z,18.20
2022-10-02T23:02:10.729Z,19.63
2022-10-02T23:05:12.426Z,20.30
2022-10-02T23:08:33.148Z,26.02
2022-10-02T23:11:25.374Z,25.42
2022-10-02T23:14:36.140Z,24.60
2022-10-02T23:17:42.349Z,32.92
2022-10-02T23:20:42.793Z,21.58
2022-10-02T23:23:58.261Z,23.70
2022-10-02T23:27:00.567Z,28.90
2022-10-02T23:29:56.646Z,22.52
2022-10-02T23:32:50.090Z,24.95
2022-10-02T23:35:49.707Z,29.33
2022-10-02T23:39:06.797Z,27.60
2022-10-02T23:41:58.495Z,26.02
2022-10-02T23:44:59.893Z,26.40
2022-10-02T23:50:46.753Z,28.25
2022-10-02T23:53:36.867Z,27.92
2022-10-02T23:56:55.491Z,26.27
